createdAt,value
2022-09-28T00:00:13.249Z,12.26
2022-09-28T00:01:13.232Z,12.21
2022-09-28T00:02:13.293Z,12.31
2022-09-28T00:03:13.276Z,12.37
2022-09-28T00:04:13.223Z,12.34
2022-09-28T00:05:13.221Z,12.38
2022-09-28T00:06:13.205Z,12.31
2022-09-28T00:07:13.218Z,12.34
2022-09-28T00:08:13.195Z,12.41
2022-09-28T00:09:13.253Z,12.42
2022-09-28T00:10:13.216Z,12.45
2022-09-28T00:11:13.171Z,12.38
2022-09-28T00:12:13.172Z,12.34
2022-09-28T00:13:13.166Z,12.39
2022-09-28T00:14:13.169Z,12.44
2022-09-28T00:15:13.177Z,12.41
2022-09-28T00:16:13.178Z,12.31
2022-09-28T00:17:13.142Z,12.21
2022-09-28T00:18:13.150Z,12.27
2022-09-28T00:19:13.235Z,12.33
2022-09-28T00:20:13.122Z,12.34
2022-09-28T00:21:14.118Z,12.29
2022-09-28T00:22:13.110Z,12.33
2022-09-28T00:23:13.098Z,12.31
2022-09-28T00:24:13.141Z,12.41
2022-09-28T00:25:13.094Z,12.29
2022-09-28T00:26:13.090Z,12.30
2022-09-28T00:27:13.119Z,12.26
2022-09-28T00:28:13.074Z,12.26
2022-09-28T00:29:13.116Z,12.33
2022-09-28T00:30:13.092Z,12.39
2022-09-28T00:31:13.100Z,12.33
2022-09-28T00:32:13.047Z,12.44
2022-09-28T00:33:13.050Z,12.41
2022-09-28T00:34:13.049Z,12.37
2022-09-28T00:35:13.069Z,12.42
2022-09-28T00:36:13.032Z,12.37
2022-09-28T00:37:13.025Z,12.26
2022-09-28T00:38:13.022Z,12.45
2022-09-28T00:39:13.090Z,12.33
2022-09-28T00:40:13.014Z,12.16
2022-09-28T00:41:13.018Z,12.13
2022-09-28T00:42:12.991Z,12.26
2022-09-28T00:43:12.987Z,12.38
2022-09-28T00:44:12.982Z,12.30
2022-09-28T00:45:12.982Z,12.30
2022-09-28T00:46:13.023Z,12.34
2022-09-28T00:47:12.998Z,12.30
2022-09-28T00:48:12.972Z,12.45
2022-09-28T00:49:12.954Z,12.45
2022-09-28T00:50:12.958Z,12.42
2022-09-28T00:51:12.954Z,12.15
2022-09-28T00:52:12.935Z,11.97
2022-09-28T00:53:12.942Z,11.93
2022-09-28T00:54:12.918Z,11.87
2022-09-28T00:55:12.935Z,11.65
2022-09-28T00:56:12.918Z,11.72
2022-09-28T00:57:12.941Z,11.72
2022-09-28T00:58:12.914Z,11.72
2022-09-28T00:59:12.954Z,11.70
2022-09-28T01:00:12.954Z,11.77
2022-09-28T01:01:12.937Z,11.77
2022-09-28T01:02:12.970Z,11.68
2022-09-28T01:03:12.868Z,11.61
2022-09-28T01:04:12.878Z,11.56
2022-09-28T01:05:12.858Z,11.56
2022-09-28T01:06:12.867Z,11.70
2022-09-28T01:07:12.882Z,11.78
2022-09-28T01:08:12.867Z,11.78
2022-09-28T01:09:12.892Z,11.86
2022-09-28T01:10:12.834Z,11.78
2022-09-28T01:11:12.839Z,11.57
2022-09-28T01:12:12.826Z,11.53
2022-09-28T01:13:12.844Z,11.46
2022-09-28T01:14:12.815Z,11.52
2022-09-28T01:15:12.802Z,11.64
2022-09-28T01:16:12.925Z,11.46
2022-09-28T01:17:12.790Z,11.44
2022-09-28T01:18:12.799Z,11.70
2022-09-28T01:19:12.837Z,11.65
2022-09-28T01:20:12.774Z,11.62
2022-09-28T01:21:12.787Z,11.62
2022-09-28T01:22:12.759Z,11.56
2022-09-28T01:23:12.775Z,11.61
2022-09-28T01:24:12.767Z,11.57
2022-09-28T01:25:12.741Z,11.61
2022-09-28T01:26:12.744Z,11.44
2022-09-28T01:27:13.722Z,11.52
2022-09-28T01:28:12.738Z,11.61
2022-09-28T01:29:12.716Z,11.62
2022-09-28T01:30:12.710Z,11.47
2022-09-28T01:31:12.787Z,11.41
2022-09-28T01:32:13.696Z,11.64
2022-09-28T01:33:12.695Z,11.64
2022-09-28T01:34:12.724Z,11.62
2022-09-28T01:35:12.684Z,11.62
2022-09-28T01:36:12.671Z,11.49
2022-09-28T01:37:12.699Z,11.43
2022-09-28T01:38:12.679Z,11.44
2022-09-28T01:39:12.655Z,11.49
2022-09-28T01:40:12.644Z,11.43
2022-09-28T01:41:12.664Z,11.31
2022-09-28T01:42:12.694Z,11.28
2022-09-28T01:43:12.632Z,11.36
2022-09-28T01:44:12.647Z,11.31
2022-09-28T01:45:12.611Z,11.35
2022-09-28T01:46:12.718Z,11.39
2022-09-28T01:47:12.614Z,11.35
2022-09-28T01:48:12.619Z,11.36
2022-09-28T01:49:12.651Z,11.31
2022-09-28T01:50:12.591Z,11.36
2022-09-28T01:51:12.591Z,11.49
2022-09-28T01:52:12.580Z,11.44
2022-09-28T01:53:12.582Z,11.32
2022-09-28T01:54:12.579Z,11.39
2022-09-28T01:55:12.560Z,11.52
2022-09-28T01:56:12.567Z,11.43
2022-09-28T01:57:12.542Z,11.64
2022-09-28T01:58:12.544Z,11.50
2022-09-28T01:59:12.543Z,11.36
2022-09-28T02:00:12.566Z,11.31
2022-09-28T02:01:12.566Z,11.32
2022-09-28T02:02:12.591Z,11.24
2022-09-28T02:03:13.531Z,11.17
2022-09-28T02:04:12.503Z,11.27
2022-09-28T02:05:12.527Z,11.21
2022-09-28T02:06:12.494Z,11.16
2022-09-28T02:07:12.504Z,11.19
2022-09-28T02:08:12.488Z,11.24
2022-09-28T02:09:12.490Z,11.25
2022-09-28T02:10:12.471Z,11.27
2022-09-28T02:11:12.478Z,11.27
2022-09-28T02:12:12.486Z,11.16
2022-09-28T02:13:44.907Z,11.07
2022-09-28T02:14:12.448Z,11.28
2022-09-28T02:15:12.442Z,11.25
2022-09-28T02:16:12.458Z,11.11
2022-09-28T02:17:12.465Z,10.96
2022-09-28T02:18:12.439Z,11.16
2022-09-28T02:19:12.427Z,11.20
2022-09-28T02:20:12.412Z,11.21
2022-09-28T02:21:12.423Z,11.17
2022-09-28T02:22:12.419Z,11.20
2022-09-28T02:23:12.407Z,11.16
2022-09-28T02:24:12.407Z,10.91
2022-09-28T02:25:12.383Z,11.06
2022-09-28T02:26:12.384Z,11.24
2022-09-28T02:27:12.386Z,11.34
2022-09-28T02:28:12.356Z,11.34
2022-09-28T02:29:12.360Z,11.53
2022-09-28T02:30:12.352Z,11.39
2022-09-28T02:31:12.389Z,11.35
2022-09-28T02:32:12.355Z,11.47
2022-09-28T02:33:12.322Z,11.43
2022-09-28T02:34:12.372Z,11.49
2022-09-28T02:35:12.319Z,11.50
2022-09-28T02:36:12.313Z,11.65
2022-09-28T02:37:12.315Z,11.70
2022-09-28T02:38:12.311Z,11.68
2022-09-28T02:39:12.302Z,11.64
2022-09-28T02:40:12.289Z,11.54
2022-09-28T02:41:12.277Z,11.50
2022-09-28T02:42:12.291Z,11.54
2022-09-28T02:43:12.284Z,11.68
2022-09-28T02:44:12.265Z,11.75
2022-09-28T02:45:12.273Z,11.75
2022-09-28T02:46:12.291Z,11.65
2022-09-28T02:47:12.244Z,11.65
2022-09-28T02:48:12.256Z,11.82
2022-09-28T02:49:22.751Z,11.72
2022-09-28T02:50:14.235Z,11.75
2022-09-28T02:51:12.230Z,11.65
2022-09-28T02:52:12.214Z,11.50
2022-09-28T02:53:12.231Z,11.50
2022-09-28T02:54:16.674Z,11.72
2022-09-28T02:55:14.194Z,11.70
2022-09-28T02:56:12.189Z,11.71
2022-09-28T02:57:12.181Z,11.71
2022-09-28T02:58:12.198Z,11.87
2022-09-28T02:59:12.169Z,11.87
2022-09-28T03:00:12.170Z,11.75
2022-09-28T03:01:12.189Z,11.74
2022-09-28T03:02:12.206Z,11.77
2022-09-28T03:03:12.204Z,11.74
2022-09-28T03:04:12.149Z,11.83
2022-09-28T03:05:12.140Z,11.83
2022-09-28T03:06:12.132Z,12.06
2022-09-28T03:07:12.148Z,11.90
2022-09-28T03:08:12.133Z,11.97
2022-09-28T03:09:12.116Z,12.05
2022-09-28T03:10:12.109Z,12.06
2022-09-28T03:11:12.106Z,12.13
2022-09-28T03:12:12.092Z,12.06
2022-09-28T03:13:12.087Z,12.05
2022-09-28T03:14:12.108Z,11.99
2022-09-28T03:15:12.080Z,12.06
2022-09-28T03:16:12.206Z,11.96
2022-09-28T03:17:12.732Z,12.13
2022-09-28T03:18:12.061Z,12.04
2022-09-28T03:19:12.074Z,12.09
2022-09-28T03:20:12.054Z,12.02
2022-09-28T03:21:12.071Z,12.13
2022-09-28T03:22:12.040Z,12.06
2022-09-28T03:23:24.227Z,12.19
2022-09-28T03:24:14.100Z,12.08
2022-09-28T03:25:12.032Z,12.09
2022-09-28T03:26:12.005Z,12.05
2022-09-28T03:27:12.045Z,11.90
2022-09-28T03:28:11.996Z,11.77
2022-09-28T03:29:12.001Z,11.85
2022-09-28T03:30:12.000Z,11.85
2022-09-28T03:31:12.025Z,11.82
2022-09-28T03:32:11.969Z,11.70
2022-09-28T03:33:11.976Z,11.75
2022-09-28T03:34:11.976Z,11.78
2022-09-28T03:35:11.960Z,11.85
2022-09-28T03:36:12.009Z,11.85
2022-09-28T03:37:11.944Z,11.93
2022-09-28T03:38:11.952Z,12.02
2022-09-28T03:39:11.956Z,11.93
2022-09-28T03:40:12.944Z,12.06
2022-09-28T03:41:11.936Z,12.02
2022-09-28T03:42:11.942Z,11.90
2022-09-28T03:43:11.913Z,11.83
2022-09-28T03:44:11.904Z,11.86
2022-09-28T03:45:11.948Z,11.93
2022-09-28T03:46:12.294Z,12.02
2022-09-28T03:47:11.892Z,12.04
2022-09-28T03:48:11.917Z,12.15
2022-09-28T03:49:11.874Z,12.01
2022-09-28T03:50:11.864Z,12.01
2022-09-28T03:51:11.874Z,12.05
2022-09-28T03:52:11.876Z,11.96
2022-09-28T03:53:11.864Z,12.06
2022-09-28T03:54:11.836Z,12.16
2022-09-28T03:55:11.843Z,12.05
2022-09-28T03:56:11.856Z,12.15
2022-09-28T03:57:11.820Z,12.16
2022-09-28T03:58:11.821Z,12.21
2022-09-28T03:59:11.827Z,12.12
2022-09-28T04:00:11.804Z,12.24
2022-09-28T04:01:16.411Z,12.27
2022-09-28T04:02:13.825Z,12.24
2022-09-28T04:03:11.794Z,12.12
2022-09-28T04:04:11.782Z,12.11
2022-09-28T04:05:11.786Z,12.13
2022-09-28T04:06:11.822Z,12.16
2022-09-28T04:07:11.768Z,12.27
2022-09-28T04:08:11.762Z,12.19
2022-09-28T04:09:11.761Z,12.24
2022-09-28T04:10:11.737Z,12.20
2022-09-28T04:11:11.756Z,12.06
2022-09-28T04:12:11.751Z,12.01
2022-09-28T04:13:11.725Z,11.97
2022-09-28T04:14:11.714Z,12.04
2022-09-28T04:15:11.723Z,12.13
2022-09-28T04:16:11.788Z,12.13
2022-09-28T04:17:11.725Z,12.21
2022-09-28T04:18:11.710Z,12.15
2022-09-28T04:19:11.719Z,11.97
2022-09-28T04:20:11.676Z,11.90
2022-09-28T04:21:11.685Z,11.86
2022-09-28T04:22:11.713Z,11.75
2022-09-28T04:23:11.677Z,11.53
2022-09-28T04:24:12.210Z,11.65
2022-09-28T04:25:11.681Z,11.85
2022-09-28T04:26:11.661Z,11.96
2022-09-28T04:27:11.652Z,11.86
2022-09-28T04:28:11.639Z,12.04
2022-09-28T04:29:11.739Z,11.87
2022-09-28T04:30:11.624Z,11.87
2022-09-28T04:31:11.719Z,11.77
2022-09-28T04:32:11.627Z,11.68
2022-09-28T04:33:11.615Z,11.74
2022-09-28T04:34:11.620Z,11.72
2022-09-28T04:35:11.603Z,11.75
2022-09-28T04:36:11.588Z,11.71
2022-09-28T04:37:11.592Z,11.75
2022-09-28T04:38:11.587Z,11.67
2022-09-28T04:39:11.628Z,11.77
2022-09-28T04:40:11.620Z,11.77
2022-09-28T04:41:11.616Z,11.70
2022-09-28T04:42:11.569Z,11.80
2022-09-28T04:43:12.229Z,11.82
2022-09-28T04:44:11.565Z,11.72
2022-09-28T04:45:14.250Z,11.85
2022-09-28T04:46:11.621Z,11.62
2022-09-28T04:47:11.553Z,11.56
2022-09-28T04:48:11.595Z,11.67
2022-09-28T04:49:11.659Z,11.61
2022-09-28T04:50:11.519Z,11.65
2022-09-28T04:51:11.518Z,11.65
2022-09-28T04:52:17.180Z,11.80
2022-09-28T04:53:13.549Z,11.80
2022-09-28T04:54:11.530Z,11.86
2022-09-28T04:55:11.498Z,12.04
2022-09-28T04:56:11.526Z,12.15
2022-09-28T04:57:11.531Z,12.01
2022-09-28T04:58:11.485Z,11.94
2022-09-28T04:59:11.465Z,11.90
2022-09-28T05:00:11.469Z,11.96
2022-09-28T05:01:11.497Z,11.77
2022-09-28T05:02:11.517Z,11.68
2022-09-28T05:03:11.433Z,11.53
2022-09-28T05:04:11.452Z,11.53
2022-09-28T05:05:11.448Z,11.35
2022-09-28T05:06:11.422Z,11.34
2022-09-28T05:07:11.423Z,11.28
2022-09-28T05:08:11.420Z,11.35
2022-09-28T05:09:11.403Z,11.38
2022-09-28T05:10:11.419Z,11.38
2022-09-28T05:11:11.403Z,11.36
2022-09-28T05:12:11.392Z,11.28
2022-09-28T05:13:11.388Z,11.41
2022-09-28T05:14:11.374Z,11.46
2022-09-28T05:15:11.382Z,11.61
2022-09-28T05:16:11.382Z,11.56
2022-09-28T05:17:11.365Z,11.61
2022-09-28T05:18:11.355Z,11.77
2022-09-28T05:19:11.347Z,11.75
2022-09-28T05:20:11.347Z,11.82
2022-09-28T05:21:11.413Z,11.72
2022-09-28T05:22:11.395Z,11.74
2022-09-28T05:23:11.332Z,11.75
2022-09-28T05:24:11.327Z,11.72
2022-09-28T05:25:11.344Z,11.71
2022-09-28T05:26:11.332Z,11.75
2022-09-28T05:27:11.297Z,11.68
2022-09-28T05:28:11.315Z,11.72
2022-09-28T05:29:11.287Z,11.82
2022-09-28T05:30:12.307Z,11.77
2022-09-28T05:31:11.283Z,11.82
2022-09-28T05:32:11.336Z,11.72
2022-09-28T05:33:11.278Z,11.68
2022-09-28T05:34:11.280Z,11.70
2022-09-28T05:35:11.266Z,11.70
2022-09-28T05:36:11.272Z,11.71
2022-09-28T05:37:11.248Z,11.80
2022-09-28T05:38:11.243Z,11.83
2022-09-28T05:39:11.300Z,11.82
2022-09-28T05:40:11.254Z,11.72
2022-09-28T05:41:11.266Z,11.80
2022-09-28T05:42:11.211Z,11.86
2022-09-28T05:43:11.225Z,11.90
2022-09-28T05:44:12.195Z,11.96
2022-09-28T05:45:11.295Z,12.04
2022-09-28T05:46:11.284Z,11.97
2022-09-28T05:47:11.204Z,12.12
2022-09-28T05:48:11.175Z,12.09
2022-09-28T05:49:11.211Z,12.12
2022-09-28T05:50:11.218Z,12.15
2022-09-28T05:51:12.245Z,12.12
2022-09-28T05:52:11.155Z,12.02
2022-09-28T05:53:11.168Z,12.02
2022-09-28T05:54:11.183Z,12.04
2022-09-28T05:55:11.150Z,12.02
2022-09-28T05:56:11.136Z,12.04
2022-09-28T05:57:11.153Z,11.93
2022-09-28T05:58:11.140Z,12.05
2022-09-28T05:59:11.157Z,12.02
2022-09-28T06:00:11.137Z,12.05
2022-09-28T06:01:11.286Z,12.02
2022-09-28T06:02:11.158Z,11.80
2022-09-28T06:03:11.108Z,11.67
2022-09-28T06:04:11.205Z,11.72
2022-09-28T06:05:11.108Z,11.72
2022-09-28T06:06:11.079Z,11.86
2022-09-28T06:07:11.095Z,11.53
2022-09-28T06:08:11.073Z,11.64
2022-09-28T06:09:11.084Z,11.74
2022-09-28T06:10:11.069Z,11.62
2022-09-28T06:11:11.047Z,11.80
2022-09-28T06:12:11.048Z,11.80
2022-09-28T06:13:11.052Z,11.77
2022-09-28T06:14:11.116Z,11.75
2022-09-28T06:15:11.030Z,11.80
2022-09-28T06:16:11.055Z,11.59
2022-09-28T06:17:11.027Z,11.70
2022-09-28T06:18:11.039Z,11.70
2022-09-28T06:19:11.028Z,11.70
2022-09-28T06:20:11.027Z,11.59
2022-09-28T06:21:11.003Z,11.59
2022-09-28T06:22:10.984Z,11.52
2022-09-28T06:23:10.980Z,11.64
2022-09-28T06:24:11.038Z,11.67
2022-09-28T06:25:10.985Z,11.64
2022-09-28T06:26:10.960Z,11.70
2022-09-28T06:27:10.978Z,11.86
2022-09-28T06:28:10.966Z,12.08
2022-09-28T06:29:12.825Z,12.12
2022-09-28T06:30:11.955Z,12.02
2022-09-28T06:31:11.008Z,12.15
2022-09-28T06:32:10.919Z,12.20
2022-09-28T06:33:10.947Z,12.26
2022-09-28T06:34:10.956Z,12.38
2022-09-28T06:35:10.915Z,12.45
2022-09-28T06:36:10.927Z,12.41
2022-09-28T06:37:11.588Z,12.42
2022-09-28T06:38:10.899Z,12.37
2022-09-28T06:39:10.905Z,12.31
2022-09-28T06:40:10.899Z,12.49
2022-09-28T06:41:10.883Z,12.46
2022-09-28T06:42:10.918Z,12.45
2022-09-28T06:43:10.888Z,12.52
2022-09-28T06:44:10.962Z,12.52
2022-09-28T06:45:10.923Z,12.59
2022-09-28T06:46:10.943Z,12.62
2022-09-28T06:47:10.834Z,12.74
2022-09-28T06:48:10.851Z,12.64
2022-09-28T06:49:10.834Z,12.70
2022-09-28T06:50:10.840Z,12.82
2022-09-28T06:51:10.826Z,12.92
2022-09-28T06:52:10.810Z,13.04
2022-09-28T06:53:10.816Z,12.75
2022-09-28T06:54:10.849Z,12.79
2022-09-28T06:55:10.799Z,12.96
2022-09-28T06:56:10.809Z,13.11
2022-09-28T06:57:10.779Z,13.21
2022-09-28T06:58:10.781Z,13.33
2022-09-28T06:59:10.783Z,13.56
2022-09-28T07:00:10.806Z,13.67
2022-09-28T07:01:10.874Z,13.79
2022-09-28T07:02:10.939Z,13.84
2022-09-28T07:03:10.747Z,13.63
2022-09-28T07:04:10.757Z,13.58
2022-09-28T07:05:10.758Z,13.81
2022-09-28T07:06:10.760Z,14.04
2022-09-28T07:07:10.747Z,14.14
2022-09-28T07:08:10.778Z,14.35
2022-09-28T07:09:30.101Z,14.17
2022-09-28T07:10:12.698Z,13.92
2022-09-28T07:11:10.723Z,14.02
2022-09-28T07:12:10.706Z,14.20
2022-09-28T07:13:29.275Z,14.20
2022-09-28T07:14:23.194Z,14.01
2022-09-28T07:15:12.679Z,13.88
2022-09-28T07:16:10.738Z,13.95
2022-09-28T07:17:14.282Z,13.94
2022-09-28T07:18:11.668Z,13.99
2022-09-28T07:19:10.642Z,14.17
2022-09-28T07:20:18.071Z,14.43
2022-09-28T07:21:25.095Z,14.90
2022-09-28T07:22:17.447Z,15.11
2022-09-28T07:23:19.470Z,14.46
2022-09-28T07:24:12.613Z,15.21
2022-09-28T07:25:10.610Z,15.61
2022-09-28T07:26:10.598Z,15.31
2022-09-28T07:27:10.610Z,15.46
2022-09-28T07:28:10.766Z,15.42
2022-09-28T07:29:10.580Z,15.19
2022-09-28T07:30:10.592Z,14.94
2022-09-28T07:31:10.650Z,14.42
2022-09-28T07:32:10.557Z,14.35
2022-09-28T07:33:10.577Z,14.61
2022-09-28T07:34:10.670Z,15.86
2022-09-28T07:35:10.543Z,15.82
2022-09-28T07:36:10.525Z,15.43
2022-09-28T07:37:10.528Z,15.05
2022-09-28T07:38:10.517Z,14.74
2022-09-28T07:39:10.516Z,14.98
2022-09-28T07:40:10.610Z,16.15
2022-09-28T07:41:10.631Z,17.03
2022-09-28T07:42:10.483Z,16.74
2022-09-28T07:43:10.485Z,17.14
2022-09-28T07:44:11.488Z,17.03
2022-09-28T07:45:10.484Z,17.35
2022-09-28T07:46:10.526Z,16.25
2022-09-28T07:47:10.506Z,15.81
2022-09-28T07:49:12.383Z,15.68
2022-09-28T07:50:10.461Z,15.68
2022-09-28T07:51:10.437Z,15.78
2022-09-28T07:52:10.425Z,15.93
2022-09-28T07:53:10.413Z,15.86
2022-09-28T07:54:10.420Z,15.68
2022-09-28T07:55:11.436Z,15.66
2022-09-28T07:56:10.393Z,15.46
2022-09-28T07:57:10.475Z,15.43
2022-09-28T07:58:10.389Z,14.88
2022-09-28T07:59:10.394Z,14.50
2022-09-28T08:00:10.415Z,14.39
2022-09-28T08:01:10.547Z,14.38
2022-09-28T08:02:10.411Z,14.38
2022-09-28T08:03:10.347Z,14.60
2022-09-28T08:04:10.344Z,14.88
2022-09-28T08:05:10.343Z,15.09
2022-09-28T08:06:10.363Z,15.57
2022-09-28T08:07:10.324Z,15.51
2022-09-28T08:08:10.364Z,15.36
2022-09-28T08:09:10.355Z,15.24
2022-09-28T08:10:10.341Z,14.87
2022-09-28T08:11:10.296Z,14.90
2022-09-28T08:12:10.349Z,14.68
2022-09-28T08:13:10.272Z,14.64
2022-09-28T08:14:36.700Z,14.62
2022-09-28T08:15:10.265Z,14.09
2022-09-28T08:16:10.300Z,13.83
2022-09-28T08:17:10.280Z,14.16
2022-09-28T08:18:10.248Z,14.31
2022-09-28T08:19:10.268Z,14.28
2022-09-28T08:20:10.268Z,14.21
2022-09-28T08:21:11.220Z,14.24
2022-09-28T08:22:10.215Z,14.35
2022-09-28T08:23:10.224Z,14.42
2022-09-28T08:24:10.251Z,14.54
2022-09-28T08:25:10.182Z,14.62
2022-09-28T08:26:15.255Z,14.90
2022-09-28T08:27:12.195Z,14.78
2022-09-28T08:28:10.188Z,14.47
2022-09-28T08:29:10.171Z,14.62
2022-09-28T08:30:10.214Z,14.80
2022-09-28T08:31:10.220Z,14.95
2022-09-28T08:32:10.145Z,14.95
2022-09-28T08:33:10.143Z,15.13
2022-09-28T08:34:10.174Z,15.21
2022-09-28T08:35:10.140Z,14.49
2022-09-28T08:36:10.164Z,14.21
2022-09-28T08:37:10.107Z,14.39
2022-09-28T08:38:10.102Z,14.47
2022-09-28T08:39:10.097Z,14.38
2022-09-28T08:40:10.159Z,14.47
2022-09-28T08:41:10.169Z,14.47
2022-09-28T08:42:10.068Z,13.88
2022-09-28T08:43:10.087Z,14.17
2022-09-28T08:44:10.161Z,14.20
2022-09-28T08:45:10.072Z,14.44
2022-09-28T08:46:10.108Z,14.39
2022-09-28T08:47:10.074Z,14.10
2022-09-28T08:48:10.058Z,14.16
2022-09-28T08:49:30.678Z,14.07
2022-09-28T08:50:12.027Z,14.17
2022-09-28T08:51:10.020Z,14.14
2022-09-28T08:52:10.025Z,14.14
2022-09-28T08:53:10.005Z,13.99
2022-09-28T08:54:11.892Z,13.96
2022-09-28T08:55:09.990Z,14.24
2022-09-28T08:56:10.029Z,14.35
2022-09-28T08:57:09.972Z,14.60
2022-09-28T08:58:09.993Z,14.57
2022-09-28T08:59:09.993Z,14.64
2022-09-28T09:00:11.826Z,14.47
2022-09-28T09:01:10.029Z,14.38
2022-09-28T09:02:10.026Z,14.09
2022-09-28T09:03:09.956Z,13.71
2022-09-28T09:04:09.913Z,13.77
2022-09-28T09:05:10.918Z,14.12
2022-09-28T09:06:09.905Z,14.19
2022-09-28T09:07:09.950Z,14.19
2022-09-28T09:08:09.929Z,13.89
2022-09-28T09:09:09.892Z,13.83
2022-09-28T09:10:09.887Z,13.83
2022-09-28T09:11:09.883Z,13.81
2022-09-28T09:12:09.860Z,13.71
2022-09-28T09:13:09.872Z,13.61
2022-09-28T09:14:09.886Z,13.69
2022-09-28T09:15:09.918Z,13.65
2022-09-28T09:16:09.857Z,13.84
2022-09-28T09:17:09.831Z,14.06
2022-09-28T09:18:09.840Z,14.20
2022-09-28T09:19:09.852Z,14.10
2022-09-28T09:20:09.811Z,14.02
2022-09-28T09:21:09.810Z,13.71
2022-09-28T09:22:09.800Z,13.88
2022-09-28T09:23:09.799Z,14.67
2022-09-28T09:24:09.784Z,15.51
2022-09-28T09:25:09.787Z,15.60
2022-09-28T09:26:09.799Z,15.72
2022-09-28T09:27:09.768Z,15.41
2022-09-28T09:28:09.768Z,15.11
2022-09-28T09:29:09.751Z,14.95
2022-09-28T09:30:09.741Z,14.95
2022-09-28T09:31:09.811Z,14.91
2022-09-28T09:32:09.744Z,14.78
2022-09-28T09:33:09.738Z,15.03
2022-09-28T09:34:09.703Z,15.39
2022-09-28T09:35:10.713Z,15.27
2022-09-28T09:36:09.739Z,15.75
2022-09-28T09:37:09.702Z,18.09
2022-09-28T09:38:09.683Z,18.73
2022-09-28T09:39:09.736Z,17.59
2022-09-28T09:40:09.714Z,16.92
2022-09-28T09:41:09.753Z,16.50
2022-09-28T09:42:09.670Z,16.12
2022-09-28T09:43:09.663Z,15.86
2022-09-28T09:44:09.753Z,15.64
2022-09-28T09:45:09.671Z,15.60
2022-09-28T09:46:09.716Z,15.30
2022-09-28T09:47:09.677Z,14.62
2022-09-28T09:48:09.637Z,14.43
2022-09-28T09:49:09.668Z,14.31
2022-09-28T09:50:09.662Z,14.10
2022-09-28T09:51:09.636Z,13.91
2022-09-28T09:52:09.638Z,13.70
2022-09-28T09:53:09.753Z,13.33
2022-09-28T09:54:09.610Z,13.12
2022-09-28T09:55:09.607Z,13.15
2022-09-28T09:56:09.603Z,12.69
2022-09-28T09:57:09.583Z,12.48
2022-09-28T09:58:09.582Z,12.31
2022-09-28T09:59:09.584Z,12.05
2022-09-28T10:00:09.562Z,11.97
2022-09-28T10:01:09.627Z,12.08
2022-09-28T10:02:11.799Z,12.02
2022-09-28T10:03:10.590Z,11.68
2022-09-28T10:04:09.554Z,11.78
2022-09-28T10:05:09.553Z,11.96
2022-09-28T10:06:09.521Z,12.09
2022-09-28T10:07:09.521Z,12.12
2022-09-28T10:08:09.510Z,12.34
2022-09-28T10:09:09.513Z,12.38
2022-09-28T10:10:09.508Z,12.46
2022-09-28T10:11:09.492Z,12.42
2022-09-28T10:12:09.489Z,12.49
2022-09-28T10:13:09.472Z,12.69
2022-09-28T10:14:09.467Z,12.77
2022-09-28T10:15:09.473Z,12.97
2022-09-28T10:16:09.459Z,13.52
2022-09-28T10:17:09.633Z,13.79
2022-09-28T10:18:09.468Z,14.46
2022-09-28T10:19:09.449Z,14.52
2022-09-28T10:20:09.428Z,15.35
2022-09-28T10:21:09.421Z,16.62
2022-09-28T10:22:09.429Z,17.11
2022-09-28T10:23:09.432Z,18.25
2022-09-28T10:24:09.404Z,18.59
2022-09-28T10:25:09.428Z,18.46
2022-09-28T10:26:09.424Z,19.28
2022-09-28T10:27:09.368Z,20.06
2022-09-28T10:28:09.389Z,20.65
2022-09-28T10:29:09.404Z,20.66
2022-09-28T10:30:09.377Z,20.46
2022-09-28T10:32:09.350Z,20.08
2022-09-28T10:33:09.390Z,18.95
2022-09-28T10:34:09.358Z,18.24
2022-09-28T10:35:09.345Z,17.66
2022-09-28T10:36:09.322Z,18.02
2022-09-28T10:37:09.343Z,17.78
2022-09-28T10:38:09.326Z,17.35
2022-09-28T10:39:09.306Z,16.25
2022-09-28T10:40:09.301Z,15.64
2022-09-28T10:41:09.322Z,15.51
2022-09-28T10:42:09.288Z,15.52
2022-09-28T10:43:09.296Z,15.81
2022-09-28T10:44:09.364Z,16.09
2022-09-28T10:45:09.280Z,15.81
2022-09-28T10:46:09.358Z,16.26
2022-09-28T10:47:09.252Z,16.49
2022-09-28T10:48:09.253Z,16.09
2022-09-28T10:49:09.258Z,16.63
2022-09-28T10:50:09.236Z,19.05
2022-09-28T10:51:09.236Z,19.80
2022-09-28T10:52:09.235Z,19.70
2022-09-28T10:53:09.220Z,20.16
2022-09-28T10:54:09.226Z,21.05
2022-09-28T10:55:09.211Z,21.02
2022-09-28T10:56:09.195Z,20.84
2022-09-28T10:57:13.301Z,18.80
2022-09-28T10:58:10.199Z,18.67
2022-09-28T10:59:09.202Z,19.25
2022-09-28T11:00:09.182Z,20.03
2022-09-28T11:01:09.290Z,18.97
2022-09-28T11:02:09.285Z,18.79
2022-09-28T11:03:09.163Z,18.13
2022-09-28T11:04:09.195Z,17.84
2022-09-28T11:05:09.147Z,17.29
2022-09-28T11:06:09.156Z,16.35
2022-09-28T11:07:09.117Z,15.66
2022-09-28T11:08:09.114Z,15.68
2022-09-28T11:09:09.098Z,16.00
2022-09-28T11:10:09.129Z,16.20
2022-09-28T11:11:09.089Z,16.26
2022-09-28T11:12:09.117Z,16.50
2022-09-28T11:13:09.097Z,16.25
2022-09-28T11:14:09.089Z,17.03
2022-09-28T11:15:09.114Z,17.53
2022-09-28T11:16:09.083Z,17.64
2022-09-28T11:17:09.110Z,17.22
2022-09-28T11:18:09.093Z,17.20
2022-09-28T11:19:09.052Z,16.78
2022-09-28T11:20:09.069Z,16.52
2022-09-28T11:21:12.556Z,16.26
2022-09-28T11:22:13.058Z,16.27
2022-09-28T11:23:10.025Z,16.07
2022-09-28T11:24:09.017Z,15.81
2022-09-28T11:25:09.024Z,16.04
2022-09-28T11:26:09.089Z,15.92
2022-09-28T11:27:09.020Z,15.60
2022-09-28T11:28:09.001Z,15.51
2022-09-28T11:29:08.991Z,15.46
2022-09-28T11:30:09.007Z,15.63
2022-09-28T11:31:09.070Z,15.51
2022-09-28T11:32:12.421Z,15.42
2022-09-28T11:33:09.964Z,15.28
2022-09-28T11:34:08.969Z,15.26
2022-09-28T11:35:08.956Z,14.86
2022-09-28T11:36:08.951Z,14.86
2022-09-28T11:37:09.769Z,14.81
2022-09-28T11:38:08.972Z,14.74
2022-09-28T11:39:08.976Z,14.74
2022-09-28T11:40:08.916Z,14.60
2022-09-28T11:41:08.909Z,14.52
2022-09-28T11:42:10.982Z,14.52
2022-09-28T11:43:10.725Z,14.35
2022-09-28T11:44:08.928Z,13.96
2022-09-28T11:45:08.975Z,14.02
2022-09-28T11:46:08.959Z,13.95
2022-09-28T11:47:08.894Z,14.07
2022-09-28T11:48:08.931Z,13.99
2022-09-28T11:49:08.874Z,13.81
2022-09-28T11:50:08.856Z,13.77
2022-09-28T11:51:08.865Z,14.06
2022-09-28T11:52:08.834Z,14.57
2022-09-28T11:53:08.918Z,15.61
2022-09-28T11:54:08.819Z,15.66
2022-09-28T11:55:08.810Z,16.11
2022-09-28T11:56:09.260Z,16.34
2022-09-28T11:57:09.806Z,15.99
2022-09-28T11:58:08.978Z,15.45
2022-09-28T11:59:08.805Z,16.70
2022-09-28T12:00:08.786Z,18.39
2022-09-28T12:01:09.774Z,20.25
2022-09-28T12:02:08.903Z,21.53
2022-09-28T12:03:08.916Z,22.25
2022-09-28T12:04:08.760Z,22.67
2022-09-28T12:05:08.765Z,22.57
2022-09-28T12:06:08.904Z,21.39
2022-09-28T12:07:08.736Z,20.05
2022-09-28T12:08:08.728Z,18.94
2022-09-28T12:09:09.810Z,18.34
2022-09-28T12:10:08.750Z,17.15
2022-09-28T12:11:08.734Z,16.45
2022-09-28T12:12:09.801Z,16.27
2022-09-28T12:13:08.697Z,15.72
2022-09-28T12:14:08.699Z,15.52
2022-09-28T12:15:08.703Z,15.41
2022-09-28T12:16:27.565Z,15.21
2022-09-28T12:17:10.750Z,15.42
2022-09-28T12:18:08.724Z,15.46
2022-09-28T12:19:08.680Z,15.41
2022-09-28T12:20:08.675Z,15.24
2022-09-28T12:21:08.665Z,15.01
2022-09-28T12:22:08.785Z,15.06
2022-09-28T12:23:08.650Z,15.70
2022-09-28T12:24:08.624Z,15.48
2022-09-28T12:25:08.636Z,15.60
2022-09-28T12:26:08.610Z,15.68
2022-09-28T12:27:08.657Z,15.45
2022-09-28T12:28:08.617Z,15.38
2022-09-28T12:29:08.593Z,15.51
2022-09-28T12:30:08.579Z,17.36
2022-09-28T12:31:08.665Z,18.95
2022-09-28T12:32:08.592Z,19.78
2022-09-28T12:33:08.561Z,20.38
2022-09-28T12:34:08.564Z,20.51
2022-09-28T12:35:08.540Z,20.69
2022-09-28T12:36:08.563Z,20.61
2022-09-28T12:37:08.572Z,20.08
2022-09-28T12:38:09.263Z,19.25
2022-09-28T12:39:19.155Z,18.82
2022-09-28T12:40:10.532Z,18.59
2022-09-28T12:41:08.525Z,19.14
2022-09-28T12:42:08.518Z,19.05
2022-09-28T12:43:08.546Z,17.67
2022-09-28T12:44:08.510Z,17.11
2022-09-28T12:45:08.525Z,17.06
2022-09-28T12:46:12.877Z,17.17
2022-09-28T12:47:09.553Z,16.85
2022-09-28T12:48:09.332Z,16.68
2022-09-28T12:51:10.477Z,15.01
2022-09-28T12:52:08.475Z,14.53
2022-09-28T12:53:08.465Z,14.62
2022-09-28T12:54:08.464Z,14.56
2022-09-28T12:56:08.426Z,14.31
2022-09-28T12:57:08.497Z,14.25